createdAt,value
2022-12-28T00:01:52.838Z,81.63
2022-12-28T00:04:21.024Z,81.38
2022-12-28T00:06:50.883Z,81.41
2022-12-28T00:09:18.926Z,81.92
2022-12-28T00:11:46.954Z,80.84
2022-12-28T00:14:14.972Z,79.67
2022-12-28T00:16:43.567Z,80.36
2022-12-28T00:19:13.477Z,79.93
2022-12-28T00:21:41.550Z,79.48
2022-12-28T00:24:19.319Z,79.77
2022-12-28T00:26:47.325Z,79.43
2022-12-28T00:29:15.224Z,78.83
2022-12-28T00:31:43.451Z,78.82
2022-12-28T00:34:11.422Z,78.62
2022-12-28T00:37:10.803Z,78.17
2022-12-28T00:39:28.729Z,78.02
2022-12-28T00:41:56.616Z,77.16
2022-12-28T00:44:25.006Z,77.10
2022-12-28T00:46:53.044Z,77.59
2022-12-28T00:49:20.889Z,77.37
2022-12-28T00:51:48.704Z,76.88
2022-12-28T00:54:16.947Z,76.08
2022-12-28T00:56:46.360Z,75.52
2022-12-28T00:59:14.286Z,75.51
2022-12-28T01:01:42.287Z,76.43
2022-12-28T01:04:10.247Z,75.44
2022-12-28T01:06:38.133Z,75.13
2022-12-28T01:09:08.713Z,75.39
2022-12-28T01:11:36.789Z,75.68
2022-12-28T01:14:06.241Z,74.78
2022-12-28T01:16:37.663Z,74.71
2022-12-28T01:19:07.717Z,74.36
2022-12-28T01:21:37.317Z,73.74
2022-12-28T01:24:09.984Z,73.65
2022-12-28T01:26:38.179Z,73.92
2022-12-28T01:29:07.636Z,73.12
2022-12-28T01:31:36.016Z,74.23
2022-12-28T01:34:04.577Z,74.03
2022-12-28T01:36:35.978Z,73.88
2022-12-28T01:39:06.608Z,74.31
2022-12-28T01:41:39.568Z,72.94
2022-12-28T01:44:42.027Z,72.51
2022-12-28T01:47:14.087Z,72.86
2022-12-28T01:49:48.382Z,73.03
2022-12-28T01:52:20.967Z,73.13
2022-12-28T01:54:52.598Z,72.89
2022-12-28T01:57:23.332Z,72.56
2022-12-28T02:00:01.357Z,71.63
2022-12-28T02:02:31.143Z,72.84
2022-12-28T02:05:00.882Z,72.87
2022-12-28T02:07:39.617Z,72.72
2022-12-28T02:10:43.530Z,72.63
2022-12-28T02:12:58.793Z,71.75
2022-12-28T02:15:28.482Z,72.16
2022-12-28T02:17:57.247Z,72.01
2022-12-28T02:20:38.465Z,71.55
2022-12-28T02:23:28.672Z,71.45
2022-12-28T02:26:15.179Z,71.37
2022-12-28T02:29:17.974Z,71.31
2022-12-28T02:31:52.280Z,70.81
2022-12-28T02:34:26.362Z,71.76
2022-12-28T02:37:01.288Z,72.04
2022-12-28T02:39:35.376Z,72.05
2022-12-28T02:42:06.418Z,72.23
2022-12-28T02:44:54.598Z,72.98
2022-12-28T02:47:41.780Z,73.00
2022-12-28T02:50:14.721Z,72.53
2022-12-28T02:53:03.849Z,73.12
2022-12-28T02:56:03.558Z,73.59
2022-12-28T02:59:03.866Z,73.69
2022-12-28T03:01:55.727Z,74.42
2022-12-28T03:04:29.995Z,76.18
2022-12-28T03:07:22.134Z,77.11
2022-12-28T03:09:57.475Z,77.25
2022-12-28T03:12:32.075Z,77.05
2022-12-28T03:15:07.553Z,78.08
2022-12-28T03:17:58.404Z,79.27
2022-12-28T03:20:47.261Z,80.06
2022-12-28T03:23:36.366Z,79.78
2022-12-28T03:26:26.853Z,80.32
2022-12-28T03:29:13.467Z,80.69
2022-12-28T03:31:42.656Z,80.60
2022-12-28T03:34:12.189Z,80.53
2022-12-28T03:36:56.579Z,80.46
2022-12-28T03:39:33.270Z,80.66
2022-12-28T03:42:27.393Z,80.67
2022-12-28T03:45:03.327Z,82.00
2022-12-28T03:47:35.155Z,82.07
2022-12-28T03:50:05.301Z,82.98
2022-12-28T03:52:34.003Z,83.01
2022-12-28T03:55:02.157Z,83.65
2022-12-28T03:57:29.929Z,83.24
2022-12-28T03:59:58.564Z,83.73
2022-12-28T04:02:26.608Z,84.19
2022-12-28T04:04:54.644Z,84.52
2022-12-28T04:07:23.768Z,84.96
2022-12-28T04:09:51.643Z,84.55
2022-12-28T04:12:19.467Z,85.89
2022-12-28T04:14:47.275Z,85.73
2022-12-28T04:17:15.649Z,85.40
2022-12-28T04:19:43.734Z,85.63
2022-12-28T04:22:11.578Z,86.31
2022-12-28T04:24:40.944Z,87.33
2022-12-28T04:27:08.887Z,88.11
2022-12-28T04:29:36.690Z,88.75
2022-12-28T04:32:04.563Z,88.29
2022-12-28T04:34:32.363Z,87.92
2022-12-28T04:37:00.352Z,88.11
2022-12-28T04:39:28.229Z,88.62
2022-12-28T04:42:17.361Z,88.64
2022-12-28T04:44:45.241Z,88.89
2022-12-28T04:47:13.417Z,88.80
2022-12-28T04:49:41.314Z,88.51
2022-12-28T04:52:09.368Z,89.39
2022-12-28T04:54:37.193Z,89.89
2022-12-28T04:57:05.252Z,90.21
2022-12-28T04:59:34.592Z,90.32
2022-12-28T05:02:02.730Z,90.22
2022-12-28T05:04:30.694Z,91.81
2022-12-28T05:06:58.796Z,92.10
2022-12-28T05:09:26.654Z,91.76
2022-12-28T05:11:55.010Z,92.08
2022-12-28T05:14:22.939Z,92.06
2022-12-28T05:16:52.748Z,92.17
2022-12-28T05:19:20.582Z,92.12
2022-12-28T05:21:48.480Z,93.44
2022-12-28T05:24:16.290Z,93.24
2022-12-28T05:26:44.295Z,93.69
2022-12-28T05:29:12.210Z,93.00
2022-12-28T05:31:40.039Z,93.10
2022-12-28T05:34:09.445Z,93.50
2022-12-28T05:36:39.661Z,93.44
2022-12-28T05:39:08.354Z,94.10
2022-12-28T05:41:36.215Z,94.87
2022-12-28T05:44:04.372Z,95.55
2022-12-28T05:46:34.384Z,95.48
2022-12-28T05:49:02.860Z,96.47
2022-12-28T05:51:33.661Z,97.27
2022-12-28T05:54:04.364Z,97.13
2022-12-28T05:56:33.495Z,97.48
2022-12-28T05:59:02.920Z,96.81
2022-12-28T06:01:32.889Z,97.12
2022-12-28T06:04:02.006Z,96.84
2022-12-28T06:06:32.103Z,95.70
2022-12-28T06:09:00.608Z,96.60
2022-12-28T06:11:30.158Z,97.09
2022-12-28T06:13:59.635Z,98.07
2022-12-28T06:16:30.190Z,98.37
2022-12-28T06:18:58.103Z,97.65
2022-12-28T06:21:27.803Z,97.51
2022-12-28T06:23:58.993Z,97.75
2022-12-28T06:26:28.218Z,97.81
2022-12-28T06:28:56.287Z,99.06
2022-12-28T06:31:26.530Z,98.69
2022-12-28T06:33:56.124Z,100.00
2022-12-28T06:36:26.365Z,99.60
2022-12-28T06:38:57.899Z,99.36
2022-12-28T06:41:26.681Z,99.02
2022-12-28T06:43:54.825Z,99.15
2022-12-28T06:46:24.701Z,99.61
2022-12-28T06:48:53.188Z,99.27
2022-12-28T06:51:23.249Z,99.33
2022-12-28T06:53:52.665Z,98.22
2022-12-28T06:56:23.776Z,98.04
2022-12-28T06:58:57.043Z,98.32
2022-12-28T07:01:32.990Z,98.26
2022-12-28T07:04:02.542Z,98.90
2022-12-28T07:06:30.984Z,98.53
2022-12-28T07:09:03.819Z,98.20
2022-12-28T07:11:33.105Z,98.64
2022-12-28T07:14:01.071Z,98.73
2022-12-28T07:18:59.386Z,98.91
2022-12-28T07:21:30.121Z,98.62
2022-12-28T07:23:58.790Z,99.13
2022-12-28T07:26:28.489Z,98.80
2022-12-28T07:28:59.699Z,99.69
2022-12-28T07:31:29.369Z,99.45
2022-12-28T07:33:59.415Z,99.89
2022-12-28T07:36:29.078Z,100.00
2022-12-28T07:38:57.614Z,99.09
2022-12-28T07:41:28.139Z,99.77
2022-12-28T07:43:57.793Z,99.94
2022-12-28T07:46:27.822Z,100.00
2022-12-28T07:48:56.995Z,100.00
2022-12-28T07:51:27.105Z,100.00
2022-12-28T07:53:56.455Z,100.00
2022-12-28T07:56:25.904Z,100.00
2022-12-28T07:58:55.808Z,100.00
2022-12-28T08:01:27.265Z,100.00
2022-12-28T08:03:56.777Z,100.00
2022-12-28T08:06:25.274Z,100.00
2022-12-28T08:08:55.047Z,100.00
2022-12-28T08:11:24.897Z,100.00
2022-12-28T08:13:55.099Z,100.00
2022-12-28T08:16:26.949Z,100.00
2022-12-28T08:18:55.736Z,100.00
2022-12-28T08:21:25.588Z,100.00
2022-12-28T08:23:54.006Z,100.00
2022-12-28T08:26:23.691Z,100.00
2022-12-28T08:28:53.711Z,100.00
2022-12-28T08:31:26.818Z,100.00
2022-12-28T08:33:55.842Z,100.00
2022-12-28T08:36:24.581Z,100.00
2022-12-28T08:38:52.885Z,100.00
2022-12-28T08:41:23.551Z,100.00
2022-12-28T08:43:53.027Z,100.00
2022-12-28T08:46:23.174Z,100.00
2022-12-28T08:48:53.750Z,100.00
2022-12-28T08:51:24.134Z,100.00
2022-12-28T08:53:52.339Z,100.00
2022-12-28T08:56:23.282Z,100.00
2022-12-28T08:58:51.510Z,100.00
2022-12-28T09:01:21.427Z,100.00
2022-12-28T09:03:51.205Z,100.00
2022-12-28T09:06:23.016Z,100.00
2022-12-28T09:09:07.475Z,100.00
2022-12-28T09:11:35.922Z,100.00
2022-12-28T09:14:04.674Z,100.00
2022-12-28T09:16:33.038Z,100.00
2022-12-28T09:19:03.399Z,100.00
2022-12-28T09:21:35.474Z,100.00
2022-12-28T09:24:03.600Z,100.00
2022-12-28T09:26:35.248Z,100.00
2022-12-28T09:29:05.383Z,100.00
2022-12-28T09:31:37.101Z,100.00
2022-12-28T09:36:55.192Z,100.00
2022-12-28T09:39:25.171Z,100.00
2022-12-28T09:41:59.037Z,100.00
2022-12-28T09:44:36.397Z,100.00
2022-12-28T09:47:17.446Z,100.00
2022-12-28T09:49:51.237Z,100.00
2022-12-28T09:52:30.122Z,100.00
2022-12-28T09:55:06.394Z,100.00
2022-12-28T09:57:38.772Z,100.00
2022-12-28T10:00:09.592Z,100.00
2022-12-28T10:02:40.823Z,100.00
2022-12-28T10:05:09.833Z,100.00
2022-12-28T10:07:39.448Z,100.00
2022-12-28T10:10:08.227Z,100.00
2022-12-28T10:12:36.717Z,100.00
2022-12-28T10:15:11.676Z,100.00
2022-12-28T10:17:40.239Z,100.00
2022-12-28T10:20:15.336Z,100.00
2022-12-28T10:22:50.181Z,100.00
2022-12-28T10:25:21.392Z,100.00
2022-12-28T10:27:49.838Z,100.00
2022-12-28T10:30:20.583Z,100.00
2022-12-28T10:33:01.345Z,100.00
2022-12-28T10:35:34.869Z,100.00
2022-12-28T10:38:07.563Z,100.00
2022-12-28T10:40:39.419Z,100.00
2022-12-28T10:43:11.092Z,100.00
2022-12-28T10:45:43.317Z,100.00
2022-12-28T10:48:18.281Z,100.00
2022-12-28T10:50:52.450Z,100.00
2022-12-28T10:53:29.608Z,100.00
2022-12-28T10:56:07.309Z,100.00
2022-12-28T10:58:36.352Z,100.00
2022-12-28T11:01:08.923Z,100.00
2022-12-28T11:03:39.321Z,100.00
2022-12-28T11:06:12.683Z,100.00
2022-12-28T11:08:44.216Z,99.73
2022-12-28T11:11:21.127Z,99.48
2022-12-28T11:13:57.496Z,99.88
2022-12-28T11:16:25.559Z,98.74
2022-12-28T11:18:54.218Z,99.24
2022-12-28T11:21:23.544Z,100.00
2022-12-28T11:23:53.884Z,100.00
2022-12-28T11:26:24.913Z,100.00
2022-12-28T11:28:54.343Z,100.00
2022-12-28T11:31:31.542Z,100.00
2022-12-28T11:34:05.946Z,100.00
2022-12-28T11:36:41.674Z,100.00
2022-12-28T11:39:34.390Z,100.00
2022-12-28T11:42:37.394Z,100.00
2022-12-28T11:44:54.918Z,100.00
2022-12-28T11:47:33.190Z,100.00
2022-12-28T11:50:42.383Z,100.00
2022-12-28T11:53:45.106Z,100.00
2022-12-28T11:56:15.761Z,100.00
2022-12-28T11:59:03.544Z,100.00
2022-12-28T12:01:54.087Z,100.00
2022-12-28T12:04:41.760Z,100.00
2022-12-28T12:07:46.080Z,100.00
2022-12-28T12:10:38.992Z,100.00
2022-12-28T12:13:49.877Z,100.00
2022-12-28T12:16:24.151Z,100.00
2022-12-28T12:18:54.809Z,100.00
2022-12-28T12:21:31.347Z,100.00
2022-12-28T12:24:06.135Z,100.00
2022-12-28T12:26:39.344Z,100.00
2022-12-28T12:29:15.832Z,100.00
2022-12-28T12:31:53.948Z,100.00
2022-12-28T12:34:29.628Z,100.00
2022-12-28T12:37:21.933Z,100.00
2022-12-28T12:40:13.124Z,100.00
2022-12-28T12:42:54.631Z,100.00
2022-12-28T12:45:35.201Z,100.00
2022-12-28T12:48:21.381Z,100.00
2022-12-28T12:51:16.081Z,100.00
2022-12-28T12:53:57.212Z,100.00
2022-12-28T12:56:37.019Z,100.00
2022-12-28T12:59:21.247Z,100.00
2022-12-28T13:01:55.845Z,100.00
2022-12-28T13:04:27.555Z,100.00
2022-12-28T13:07:00.445Z,100.00
2022-12-28T13:09:31.188Z,100.00
2022-12-28T13:12:00.037Z,100.00
2022-12-28T13:14:28.239Z,100.00
2022-12-28T13:16:59.374Z,100.00
2022-12-28T13:19:31.453Z,100.00
2022-12-28T13:21:59.856Z,100.00
2022-12-28T13:24:29.971Z,100.00
2022-12-28T13:27:02.556Z,100.00
2022-12-28T13:29:39.277Z,100.00
2022-12-28T13:32:07.222Z,100.00
2022-12-28T13:34:38.820Z,100.00
2022-12-28T13:37:15.967Z,100.00
2022-12-28T13:39:43.841Z,100.00
2022-12-28T13:42:17.011Z,100.00
2022-12-28T13:44:46.806Z,100.00
2022-12-28T13:47:23.320Z,100.00
2022-12-28T13:49:58.095Z,100.00
2022-12-28T13:52:31.459Z,100.00
2022-12-28T13:55:02.434Z,100.00
2022-12-28T13:57:46.668Z,100.00
2022-12-28T14:00:18.962Z,100.00
2022-12-28T14:02:50.011Z,100.00
2022-12-28T14:05:21.475Z,100.00
2022-12-28T14:07:51.163Z,100.00
2022-12-28T14:10:19.914Z,100.00
2022-12-28T14:12:50.097Z,100.00
2022-12-28T14:15:19.323Z,100.00
2022-12-28T14:17:48.782Z,100.00
2022-12-28T14:20:18.367Z,100.00
2022-12-28T14:22:51.295Z,100.00
2022-12-28T14:25:22.410Z,100.00
2022-12-28T14:27:58.069Z,100.00
2022-12-28T14:30:28.669Z,100.00
2022-12-28T14:32:57.898Z,100.00
2022-12-28T14:35:31.071Z,100.00
2022-12-28T14:38:04.375Z,100.00
2022-12-28T14:40:36.874Z,100.00
2022-12-28T14:43:11.863Z,100.00
2022-12-28T14:46:06.677Z,100.00
2022-12-28T14:48:37.507Z,100.00
2022-12-28T14:51:26.601Z,100.00
2022-12-28T14:54:18.726Z,100.00
2022-12-28T14:56:50.493Z,100.00
2022-12-28T14:59:22.559Z,100.00
2022-12-28T15:01:51.059Z,100.00
2022-12-28T15:04:47.029Z,100.00
2022-12-28T15:07:16.136Z,100.00
2022-12-28T15:09:47.401Z,100.00
2022-12-28T15:12:17.777Z,100.00
2022-12-28T15:14:46.096Z,100.00
2022-12-28T15:17:14.920Z,100.00
2022-12-28T15:19:47.229Z,100.00
2022-12-28T15:22:15.408Z,100.00
2022-12-28T15:24:45.654Z,100.00
2022-12-28T15:27:15.234Z,100.00
2022-12-28T15:32:30.949Z,100.00
2022-12-28T15:34:58.894Z,100.00
2022-12-28T15:37:26.759Z,100.00
2022-12-28T15:39:54.943Z,100.00
2022-12-28T15:42:24.654Z,100.00
2022-12-28T15:44:53.817Z,100.00
2022-12-28T15:47:23.332Z,100.00
2022-12-28T15:49:51.351Z,100.00
2022-12-28T15:52:19.335Z,100.00
2022-12-28T15:54:47.613Z,100.00
2022-12-28T15:57:16.097Z,100.00
2022-12-28T15:59:45.404Z,100.00
2022-12-28T16:02:13.829Z,100.00
2022-12-28T16:04:41.989Z,100.00
2022-12-28T16:07:10.165Z,100.00
2022-12-28T16:09:38.064Z,100.00
2022-12-28T16:12:06.617Z,100.00
2022-12-28T16:14:34.529Z,100.00
2022-12-28T16:17:04.895Z,100.00
2022-12-28T16:19:32.768Z,100.00
2022-12-28T16:22:00.846Z,100.00
2022-12-28T16:24:29.058Z,100.00
2022-12-28T16:26:57.466Z,100.00
2022-12-28T16:29:25.489Z,100.00
2022-12-28T16:31:55.422Z,100.00
2022-12-28T16:34:25.126Z,100.00
2022-12-28T16:36:57.002Z,100.00
2022-12-28T16:39:25.673Z,100.00
2022-12-28T16:41:58.546Z,100.00
2022-12-28T16:44:30.115Z,100.00
2022-12-28T16:46:59.745Z,100.00
2022-12-28T16:49:30.822Z,100.00
2022-12-28T16:51:59.242Z,100.00
2022-12-28T16:54:28.809Z,100.00
2022-12-28T16:56:56.831Z,100.00
2022-12-28T16:59:26.633Z,100.00
2022-12-28T17:01:56.468Z,100.00
2022-12-28T17:04:26.184Z,100.00
2022-12-28T17:06:55.817Z,100.00
2022-12-28T17:09:23.854Z,100.00
2022-12-28T17:11:52.306Z,100.00
2022-12-28T17:14:36.415Z,100.00
2022-12-28T17:17:05.587Z,100.00
2022-12-28T17:19:33.594Z,100.00
2022-12-28T17:22:06.316Z,100.00
2022-12-28T17:24:34.292Z,100.00
2022-12-28T17:27:07.766Z,100.00
2022-12-28T17:29:37.208Z,100.00
2022-12-28T17:32:05.906Z,100.00
2022-12-28T17:34:34.727Z,100.00
2022-12-28T17:37:04.155Z,100.00
2022-12-28T17:39:37.607Z,100.00
2022-12-28T17:42:08.067Z,100.00
2022-12-28T17:44:36.144Z,100.00
2022-12-28T17:47:04.253Z,99.91
2022-12-28T17:49:32.401Z,99.89
2022-12-28T17:52:00.660Z,99.33
2022-12-28T17:54:29.875Z,99.87
2022-12-28T17:56:57.877Z,99.57
2022-12-28T17:59:25.968Z,99.68
2022-12-28T18:01:54.598Z,100.00
2022-12-28T18:04:22.782Z,99.91
2022-12-28T18:06:50.618Z,100.00
2022-12-28T18:09:22.539Z,100.00
2022-12-28T18:11:56.919Z,100.00
2022-12-28T18:14:25.022Z,99.90
2022-12-28T18:16:53.339Z,99.94
2022-12-28T18:19:21.784Z,98.85
2022-12-28T18:21:50.040Z,98.01
2022-12-28T18:24:20.850Z,98.12
2022-12-28T18:26:49.225Z,97.51
2022-12-28T18:29:18.671Z,97.10
2022-12-28T18:31:46.603Z,96.71
2022-12-28T18:34:15.545Z,96.60
2022-12-28T18:36:43.610Z,96.72
2022-12-28T18:39:11.447Z,95.99
2022-12-28T18:41:39.294Z,96.91
2022-12-28T18:44:07.722Z,95.83
2022-12-28T18:46:37.152Z,95.30
2022-12-28T18:49:05.091Z,96.30
2022-12-28T18:51:32.931Z,95.07
2022-12-28T18:54:00.731Z,94.55
2022-12-28T18:56:28.601Z,94.32
2022-12-28T18:58:57.406Z,93.95
2022-12-28T19:04:17.176Z,94.18
2022-12-28T19:06:45.677Z,94.47
2022-12-28T19:09:14.391Z,93.85
2022-12-28T19:11:42.576Z,93.89
2022-12-28T19:14:13.693Z,93.10
2022-12-28T19:16:41.985Z,93.16
2022-12-28T19:19:11.259Z,93.11
2022-12-28T19:21:42.929Z,92.14
2022-12-28T19:24:17.108Z,91.65
2022-12-28T19:26:45.689Z,91.39
2022-12-28T19:29:15.412Z,91.52
2022-12-28T19:31:43.449Z,91.44
2022-12-28T19:34:11.466Z,91.66
2022-12-28T19:36:40.662Z,91.61
2022-12-28T19:39:08.450Z,91.56
2022-12-28T19:41:36.329Z,91.95
2022-12-28T19:44:04.216Z,91.69
2022-12-28T19:46:32.601Z,92.56
2022-12-28T19:49:02.058Z,92.89
2022-12-28T19:51:33.033Z,92.79
2022-12-28T19:54:03.083Z,93.29
2022-12-28T19:56:31.438Z,92.72
2022-12-28T19:59:05.515Z,93.04
2022-12-28T20:01:35.133Z,93.62
2022-12-28T20:04:10.464Z,92.93
2022-12-28T20:06:42.726Z,92.63
2022-12-28T20:09:13.199Z,92.79
2022-12-28T20:11:41.675Z,93.20
2022-12-28T20:14:12.661Z,93.46
2022-12-28T20:16:41.942Z,93.94
2022-12-28T20:19:11.320Z,93.92
2022-12-28T20:21:41.623Z,94.46
2022-12-28T20:24:11.921Z,94.52
2022-12-28T20:26:39.845Z,94.12
2022-12-28T20:29:07.844Z,94.54
2022-12-28T20:31:35.841Z,94.83
2022-12-28T20:34:03.914Z,95.59
2022-12-28T20:36:33.945Z,95.23
2022-12-28T20:39:02.308Z,95.39
2022-12-28T20:41:50.543Z,95.04
2022-12-28T20:44:23.901Z,95.63
2022-12-28T20:46:52.340Z,96.46
2022-12-28T20:49:24.414Z,96.77
2022-12-28T20:51:53.079Z,97.41
2022-12-28T20:54:21.234Z,97.47
2022-12-28T20:56:55.202Z,97.86
2022-12-28T20:59:25.006Z,97.81
2022-12-28T21:01:53.630Z,97.85
2022-12-28T21:04:27.183Z,97.02
2022-12-28T21:06:56.614Z,96.98
2022-12-28T21:09:24.522Z,96.65
2022-12-28T21:11:53.877Z,96.90
2022-12-28T21:14:24.554Z,97.56
2022-12-28T21:16:52.562Z,98.48
2022-12-28T21:19:21.526Z,97.40
2022-12-28T21:21:50.052Z,98.50
2022-12-28T21:24:27.143Z,98.10
2022-12-28T21:26:57.088Z,98.07
2022-12-28T21:29:27.182Z,98.47
2022-12-28T21:31:55.420Z,98.17
2022-12-28T21:34:27.905Z,98.75
2022-12-28T21:36:56.326Z,98.66
2022-12-28T21:39:24.486Z,98.57
2022-12-28T21:41:52.948Z,99.29
2022-12-28T21:44:25.068Z,99.55
2022-12-28T21:46:54.661Z,99.16
2022-12-28T21:49:22.935Z,99.42
2022-12-28T21:51:51.489Z,99.31
2022-12-28T21:54:21.249Z,99.53
2022-12-28T21:56:52.933Z,99.43
2022-12-28T21:59:23.673Z,99.20
2022-12-28T22:02:09.434Z,99.26
2022-12-28T22:05:00.414Z,99.35
2022-12-28T22:07:30.901Z,99.17
2022-12-28T22:10:16.024Z,98.92
2022-12-28T22:12:44.024Z,99.98
2022-12-28T22:15:33.336Z,99.34
2022-12-28T22:18:03.974Z,100.00
2022-12-28T22:20:32.353Z,99.81
2022-12-28T22:23:02.453Z,99.30
2022-12-28T22:25:32.014Z,99.30
2022-12-28T22:28:00.275Z,99.55
2022-12-28T22:30:30.210Z,100.00
2022-12-28T22:32:58.882Z,99.92
2022-12-28T22:35:26.957Z,100.00
2022-12-28T22:37:55.358Z,100.00
2022-12-28T22:40:23.464Z,100.00
2022-12-28T22:42:51.415Z,100.00
2022-12-28T22:45:26.676Z,100.00
2022-12-28T22:47:59.579Z,100.00
2022-12-28T22:50:29.253Z,100.00
2022-12-28T22:52:57.428Z,100.00
2022-12-28T22:55:25.317Z,100.00
2022-12-28T22:57:53.398Z,100.00
2022-12-28T23:00:21.568Z,100.00
2022-12-28T23:02:49.641Z,100.00
2022-12-28T23:05:19.209Z,100.00
2022-12-28T23:07:48.118Z,100.00
2022-12-28T23:10:16.119Z,100.00
2022-12-28T23:12:44.328Z,100.00
2022-12-28T23:15:19.911Z,100.00
2022-12-28T23:17:49.486Z,100.00
2022-12-28T23:20:36.819Z,100.00
2022-12-28T23:23:22.414Z,100.00
2022-12-28T23:26:08.067Z,100.00
2022-12-28T23:28:37.254Z,100.00
2022-12-28T23:31:05.854Z,100.00
2022-12-28T23:33:34.239Z,100.00
2022-12-28T23:36:04.865Z,100.00
2022-12-28T23:38:34.245Z,100.00
2022-12-28T23:41:24.309Z,100.00
2022-12-28T23:43:52.501Z,100.00
2022-12-28T23:46:20.434Z,100.00
2022-12-28T23:48:48.501Z,100.00
2022-12-28T23:51:18.055Z,100.00
2022-12-28T23:53:45.973Z,100.00
2022-12-28T23:56:13.876Z,100.00
2022-12-28T23:58:41.708Z,100.00
